sensor_id;sensor_type;location;lat;lon;timestamp;P1;durP1;ratioP1;P2;durP2;ratioP2
21987;SDS011;11158;53.404;-1.510;2022-12-18T00:00:59;10.50;;;7.50;;
21987;SDS011;11158;53.404;-1.510;2022-12-18T00:03:25;13.48;;;7.47;;
21987;SDS011;11158;53.404;-1.510;2022-12-18T00:05:51;13.00;;;7.22;;
21987;SDS011;11158;53.404;-1.510;2022-12-18T00:08:18;16.90;;;8.13;;
21987;SDS011;11158;53.404;-1.510;2022-12-18T00:10:44;12.48;;;7.68;;
21987;SDS011;11158;53.404;-1.510;2022-12-18T00:13:11;11.50;;;7.70;;
21987;SDS011;11158;53.404;-1.510;2022-12-18T00:15:38;9.90;;;7.00;;
21987;SDS011;11158;53.404;-1.510;2022-12-18T00:18:04;10.68;;;7.65;;
21987;SDS011;11158;53.404;-1.510;2022-12-18T00:20:31;12.05;;;6.43;;
21987;SDS011;11158;53.404;-1.510;2022-12-18T00:23:00;10.70;;;6.85;;
21987;SDS011;11158;53.404;-1.510;2022-12-18T00:25:26;15.15;;;6.72;;
21987;SDS011;11158;53.404;-1.510;2022-12-18T00:27:52;9.55;;;6.75;;
21987;SDS011;11158;53.404;-1.510;2022-12-18T00:30:17;12.70;;;6.85;;
21987;SDS011;11158;53.404;-1.510;2022-12-18T00:32:43;10.05;;;6.90;;
21987;SDS011;11158;53.404;-1.510;2022-12-18T00:35:09;12.10;;;6.43;;
21987;SDS011;11158;53.404;-1.510;2022-12-18T00:37:35;11.18;;;6.72;;
21987;SDS011;11158;53.404;-1.510;2022-12-18T00:40:01;12.00;;;6.78;;
21987;SDS011;11158;53.404;-1.510;2022-12-18T00:42:27;11.02;;;6.38;;
21987;SDS011;11158;53.404;-1.510;2022-12-18T00:45:12;13.05;;;6.72;;
21987;SDS011;11158;53.404;-1.510;2022-12-18T00:47:37;9.63;;;6.40;;
21987;SDS011;11158;53.404;-1.510;2022-12-18T00:50:03;9.02;;;5.40;;
21987;SDS011;11158;53.404;-1.510;2022-12-18T00:52:29;10.45;;;5.80;;
21987;SDS011;11158;53.404;-1.510;2022-12-18T00:54:55;8.00;;;5.47;;
21987;SDS011;11158;53.404;-1.510;2022-12-18T00:57:21;9.07;;;5.32;;
21987;SDS011;11158;53.404;-1.510;2022-12-18T00:59:47;8.77;;;5.45;;
21987;SDS011;11158;53.404;-1.510;2022-12-18T01:02:13;8.38;;;4.68;;
21987;SDS011;11158;53.404;-1.510;2022-12-18T01:04:38;9.30;;;5.35;;
21987;SDS011;11158;53.404;-1.510;2022-12-18T01:07:04;9.15;;;5.30;;
21987;SDS011;11158;53.404;-1.510;2022-12-18T01:09:30;6.07;;;4.60;;
21987;SDS011;11158;53.404;-1.510;2022-12-18T01:11:56;8.90;;;5.32;;
21987;SDS011;11158;53.404;-1.510;2022-12-18T01:14:22;7.20;;;5.20;;
21987;SDS011;11158;53.404;-1.510;2022-12-18T01:16:48;8.93;;;4.63;;
21987;SDS011;11158;53.404;-1.510;2022-12-18T01:19:14;10.63;;;4.63;;
21987;SDS011;11158;53.404;-1.510;2022-12-18T01:21:39;14.25;;;5.72;;
21987;SDS011;11158;53.404;-1.510;2022-12-18T01:24:05;7.72;;;4.60;;
21987;SDS011;11158;53.404;-1.510;2022-12-18T01:26:32;11.82;;;5.20;;
21987;SDS011;11158;53.404;-1.510;2022-12-18T01:28:58;8.25;;;5.30;;
21987;SDS011;11158;53.404;-1.510;2022-12-18T01:31:27;9.55;;;5.45;;
21987;SDS011;11158;53.404;-1.510;2022-12-18T01:33:54;8.95;;;5.00;;
21987;SDS011;11158;53.404;-1.510;2022-12-18T01:36:22;14.30;;;6.05;;
21987;SDS011;11158;53.404;-1.510;2022-12-18T01:38:50;7.53;;;5.00;;
21987;SDS011;11158;53.404;-1.510;2022-12-18T01:41:17;7.70;;;5.20;;
21987;SDS011;11158;53.404;-1.510;2022-12-18T01:43:49;12.35;;;4.53;;
21987;SDS011;11158;53.404;-1.510;2022-12-18T01:46:16;6.80;;;4.70;;
21987;SDS011;11158;53.404;-1.510;2022-12-18T01:48:44;7.47;;;5.38;;
21987;SDS011;11158;53.404;-1.510;2022-12-18T01:51:12;9.38;;;4.95;;
21987;SDS011;11158;53.404;-1.510;2022-12-18T01:53:39;6.82;;;5.32;;
21987;SDS011;11158;53.404;-1.510;2022-12-18T01:56:07;8.75;;;5.68;;
21987;SDS011;11158;53.404;-1.510;2022-12-18T02:01:12;5.72;;;4.60;;
21987;SDS011;11158;53.404;-1.510;2022-12-18T02:03:40;10.88;;;5.53;;
21987;SDS011;11158;53.404;-1.510;2022-12-18T02:11:56;11.65;;;6.20;;
21987;SDS011;11158;53.404;-1.510;2022-12-18T02:17:03;10.93;;;6.28;;
21987;SDS011;11158;53.404;-1.510;2022-12-18T02:19:55;14.25;;;6.78;;
21987;SDS011;11158;53.404;-1.510;2022-12-18T02:28:20;10.68;;;6.72;;
21987;SDS011;11158;53.404;-1.510;2022-12-18T02:30:49;14.00;;;6.32;;
21987;SDS011;11158;53.404;-1.510;2022-12-18T02:33:17;8.68;;;6.60;;
21987;SDS011;11158;53.404;-1.510;2022-12-18T02:35:46;10.10;;;7.68;;
21987;SDS011;11158;53.404;-1.510;2022-12-18T02:38:14;9.80;;;7.53;;
21987;SDS011;11158;53.404;-1.510;2022-12-18T02:40:41;9.15;;;5.85;;
21987;SDS011;11158;53.404;-1.510;2022-12-18T02:43:09;8.20;;;6.10;;
21987;SDS011;11158;53.404;-1.510;2022-12-18T02:45:45;9.00;;;5.60;;
21987;SDS011;11158;53.404;-1.510;2022-12-18T02:48:13;8.20;;;6.05;;
21987;SDS011;11158;53.404;-1.510;2022-12-18T02:50:48;10.80;;;6.80;;
21987;SDS011;11158;53.404;-1.510;2022-12-18T02:53:43;10.38;;;6.75;;
21987;SDS011;11158;53.404;-1.510;2022-12-18T02:59:00;10.95;;;7.10;;
21987;SDS011;11158;53.404;-1.510;2022-12-18T03:04:29;13.07;;;7.88;;
21987;SDS011;11158;53.404;-1.510;2022-12-18T03:07:05;11.32;;;7.90;;
21987;SDS011;11158;53.404;-1.510;2022-12-18T03:09:39;12.20;;;8.07;;
21987;SDS011;11158;53.404;-1.510;2022-12-18T03:12:32;15.68;;;9.35;;
21987;SDS011;11158;53.404;-1.510;2022-12-18T03:15:10;13.40;;;8.52;;
21987;SDS011;11158;53.404;-1.510;2022-12-18T03:17:44;12.35;;;9.02;;
21987;SDS011;11158;53.404;-1.510;2022-12-18T03:22:42;16.08;;;9.45;;
21987;SDS011;11158;53.404;-1.510;2022-12-18T03:25:13;12.95;;;9.60;;
21987;SDS011;11158;53.404;-1.510;2022-12-18T03:27:42;14.90;;;9.68;;
21987;SDS011;11158;53.404;-1.510;2022-12-18T03:32:44;13.32;;;9.70;;
21987;SDS011;11158;53.404;-1.510;2022-12-18T03:35:13;17.27;;;10.10;;
21987;SDS011;11158;53.404;-1.510;2022-12-18T03:37:42;19.95;;;10.55;;
21987;SDS011;11158;53.404;-1.510;2022-12-18T03:40:08;16.23;;;10.57;;
21987;SDS011;11158;53.404;-1.510;2022-12-18T03:42:51;18.00;;;11.20;;
21987;SDS011;11158;53.404;-1.510;2022-12-18T03:45:32;15.13;;;10.48;;
21987;SDS011;11158;53.404;-1.510;2022-12-18T03:48:02;15.25;;;10.93;;
21987;SDS011;11158;53.404;-1.510;2022-12-18T03:55:36;14.88;;;10.52;;
21987;SDS011;11158;53.404;-1.510;2022-12-18T03:58:03;16.05;;;10.45;;
21987;SDS011;11158;53.404;-1.510;2022-12-18T04:00:33;18.92;;;10.95;;
21987;SDS011;11158;53.404;-1.510;2022-12-18T04:03:00;14.73;;;10.73;;
21987;SDS011;11158;53.404;-1.510;2022-12-18T04:05:27;16.85;;;10.48;;
21987;SDS011;11158;53.404;-1.510;2022-12-18T04:07:55;19.65;;;10.52;;
21987;SDS011;11158;53.404;-1.510;2022-12-18T04:10:22;17.92;;;11.15;;
21987;SDS011;11158;53.404;-1.510;2022-12-18T04:12:47;19.98;;;11.15;;
21987;SDS011;11158;53.404;-1.510;2022-12-18T04:15:14;14.25;;;10.77;;
21987;SDS011;11158;53.404;-1.510;2022-12-18T04:17:47;16.98;;;10.90;;
21987;SDS011;11158;53.404;-1.510;2022-12-18T04:20:13;18.63;;;10.90;;
21987;SDS011;11158;53.404;-1.510;2022-12-18T04:22:40;15.55;;;10.68;;
21987;SDS011;11158;53.404;-1.510;2022-12-18T04:25:06;14.18;;;10.13;;
21987;SDS011;11158;53.404;-1.510;2022-12-18T04:27:32;19.00;;;10.77;;
21987;SDS011;11158;53.404;-1.510;2022-12-18T04:29:58;19.48;;;11.05;;
21987;SDS011;11158;53.404;-1.510;2022-12-18T04:32:23;15.77;;;10.82;;
21987;SDS011;11158;53.404;-1.510;2022-12-18T04:34:49;19.05;;;10.82;;
21987;SDS011;11158;53.404;-1.510;2022-12-18T04:37:14;16.70;;;11.00;;
21987;SDS011;11158;53.404;-1.510;2022-12-18T04:39:40;14.65;;;10.65;;
21987;SDS011;11158;53.404;-1.510;2022-12-18T04:42:06;15.63;;;10.80;;
21987;SDS011;11158;53.404;-1.510;2022-12-18T04:44:31;16.10;;;11.05;;
21987;SDS011;11158;53.404;-1.510;2022-12-18T04:46:59;19.27;;;11.05;;
21987;SDS011;11158;53.404;-1.510;2022-12-18T04:49:26;18.67;;;11.52;;
21987;SDS011;11158;53.404;-1.510;2022-12-18T04:51:52;16.17;;;11.43;;
21987;SDS011;11158;53.404;-1.510;2022-12-18T04:54:18;18.30;;;11.57;;
21987;SDS011;11158;53.404;-1.510;2022-12-18T04:56:45;17.17;;;11.10;;
21987;SDS011;11158;53.404;-1.510;2022-12-18T04:59:11;17.52;;;10.88;;
21987;SDS011;11158;53.404;-1.510;2022-12-18T05:01:37;14.45;;;10.52;;
21987;SDS011;11158;53.404;-1.510;2022-12-18T05:04:02;16.25;;;10.93;;
21987;SDS011;11158;53.404;-1.510;2022-12-18T05:06:28;15.23;;;10.63;;
21987;SDS011;11158;53.404;-1.510;2022-12-18T05:08:54;16.80;;;10.90;;
21987;SDS011;11158;53.404;-1.510;2022-12-18T05:11:20;19.17;;;10.93;;
21987;SDS011;11158;53.404;-1.510;2022-12-18T05:13:45;17.00;;;10.63;;
21987;SDS011;11158;53.404;-1.510;2022-12-18T05:16:11;17.77;;;11.63;;
21987;SDS011;11158;53.404;-1.510;2022-12-18T05:18:37;19.02;;;12.10;;
21987;SDS011;11158;53.404;-1.510;2022-12-18T05:21:03;20.80;;;12.18;;
21987;SDS011;11158;53.404;-1.510;2022-12-18T05:23:29;21.83;;;12.63;;
21987;SDS011;11158;53.404;-1.510;2022-12-18T05:25:59;24.65;;;13.43;;
21987;SDS011;11158;53.404;-1.510;2022-12-18T05:28:26;21.25;;;12.00;;
21987;SDS011;11158;53.404;-1.510;2022-12-18T05:30:54;22.92;;;13.25;;
21987;SDS011;11158;53.404;-1.510;2022-12-18T05:33:24;20.83;;;13.82;;
21987;SDS011;11158;53.404;-1.510;2022-12-18T05:35:54;21.38;;;13.32;;
21987;SDS011;11158;53.404;-1.510;2022-12-18T05:38:29;21.77;;;12.93;;
21987;SDS011;11158;53.404;-1.510;2022-12-18T05:40:56;21.88;;;13.35;;
21987;SDS011;11158;53.404;-1.510;2022-12-18T05:43:24;22.80;;;13.93;;
21987;SDS011;11158;53.404;-1.510;2022-12-18T05:45:51;23.67;;;14.40;;
21987;SDS011;11158;53.404;-1.510;2022-12-18T05:48:17;23.55;;;14.32;;
21987;SDS011;11158;53.404;-1.510;2022-12-18T05:50:44;23.58;;;14.32;;
21987;SDS011;11158;53.404;-1.510;2022-12-18T05:53:12;28.70;;;15.43;;
21987;SDS011;11158;53.404;-1.510;2022-12-18T05:55:39;27.98;;;16.23;;
21987;SDS011;11158;53.404;-1.510;2022-12-18T05:58:07;31.52;;;18.85;;
21987;SDS011;11158;53.404;-1.510;2022-12-18T06:00:35;36.60;;;18.33;;
21987;SDS011;11158;53.404;-1.510;2022-12-18T06:03:05;34.63;;;17.65;;
21987;SDS011;11158;53.404;-1.510;2022-12-18T06:05:35;30.10;;;17.08;;
21987;SDS011;11158;53.404;-1.510;2022-12-18T06:10:30;34.38;;;17.83;;
21987;SDS011;11158;53.404;-1.510;2022-12-18T06:12:55;37.40;;;18.80;;
21987;SDS011;11158;53.404;-1.510;2022-12-18T06:15:21;33.80;;;19.23;;
21987;SDS011;11158;53.404;-1.510;2022-12-18T06:17:47;38.92;;;20.00;;
21987;SDS011;11158;53.404;-1.510;2022-12-18T06:20:12;34.78;;;19.67;;
21987;SDS011;11158;53.404;-1.510;2022-12-18T06:22:38;34.72;;;19.83;;
21987;SDS011;11158;53.404;-1.510;2022-12-18T06:25:05;39.08;;;19.98;;
21987;SDS011;11158;53.404;-1.510;2022-12-18T06:27:31;38.28;;;22.05;;
21987;SDS011;11158;53.404;-1.510;2022-12-18T06:29:58;38.20;;;20.70;;
21987;SDS011;11158;53.404;-1.510;2022-12-18T06:32:25;38.58;;;22.23;;
21987;SDS011;11158;53.404;-1.510;2022-12-18T06:34:52;41.00;;;22.90;;
21987;SDS011;11158;53.404;-1.510;2022-12-18T06:37:19;37.90;;;21.33;;
21987;SDS011;11158;53.404;-1.510;2022-12-18T06:39:44;44.72;;;24.95;;
21987;SDS011;11158;53.404;-1.510;2022-12-18T06:42:10;44.42;;;21.85;;
21987;SDS011;11158;53.404;-1.510;2022-12-18T06:44:36;47.30;;;24.45;;
21987;SDS011;11158;53.404;-1.510;2022-12-18T06:47:01;46.88;;;23.05;;
21987;SDS011;11158;53.404;-1.510;2022-12-18T06:49:27;45.63;;;23.83;;
21987;SDS011;11158;53.404;-1.510;2022-12-18T06:51:53;46.05;;;25.95;;
21987;SDS011;11158;53.404;-1.510;2022-12-18T06:54:19;43.20;;;23.05;;
21987;SDS011;11158;53.404;-1.510;2022-12-18T06:56:45;47.05;;;22.77;;
21987;SDS011;11158;53.404;-1.510;2022-12-18T06:59:12;42.15;;;23.67;;
21987;SDS011;11158;53.404;-1.510;2022-12-18T07:01:38;43.65;;;23.70;;
21987;SDS011;11158;53.404;-1.510;2022-12-18T07:04:04;39.60;;;23.02;;
21987;SDS011;11158;53.404;-1.510;2022-12-18T07:06:29;42.35;;;24.98;;
21987;SDS011;11158;53.404;-1.510;2022-12-18T07:08:55;45.35;;;24.17;;
21987;SDS011;11158;53.404;-1.510;2022-12-18T07:11:21;46.03;;;23.45;;
21987;SDS011;11158;53.404;-1.510;2022-12-18T07:13:47;42.28;;;23.38;;
21987;SDS011;11158;53.404;-1.510;2022-12-18T07:16:15;45.60;;;23.38;;
21987;SDS011;11158;53.404;-1.510;2022-12-18T07:18:42;44.60;;;23.55;;
21987;SDS011;11158;53.404;-1.510;2022-12-18T07:21:09;47.25;;;23.70;;
21987;SDS011;11158;53.404;-1.510;2022-12-18T07:23:37;45.90;;;25.33;;
21987;SDS011;11158;53.404;-1.510;2022-12-18T07:26:03;44.85;;;24.70;;
21987;SDS011;11158;53.404;-1.510;2022-12-18T07:28:30;47.92;;;26.52;;
21987;SDS011;11158;53.404;-1.510;2022-12-18T07:30:57;49.22;;;25.73;;
21987;SDS011;11158;53.404;-1.510;2022-12-18T07:33:24;49.17;;;25.88;;
21987;SDS011;11158;53.404;-1.510;2022-12-18T07:35:51;51.45;;;26.27;;
21987;SDS011;11158;53.404;-1.510;2022-12-18T07:38:16;54.03;;;26.60;;
21987;SDS011;11158;53.404;-1.510;2022-12-18T07:40:42;53.05;;;26.27;;
21987;SDS011;11158;53.404;-1.510;2022-12-18T07:43:08;49.63;;;27.40;;
21987;SDS011;11158;53.404;-1.510;2022-12-18T07:45:34;53.33;;;30.95;;
21987;SDS011;11158;53.404;-1.510;2022-12-18T07:47:59;49.88;;;26.65;;
21987;SDS011;11158;53.404;-1.510;2022-12-18T07:50:25;50.88;;;26.75;;
21987;SDS011;11158;53.404;-1.510;2022-12-18T07:52:50;50.78;;;27.92;;
21987;SDS011;11158;53.404;-1.510;2022-12-18T07:55:16;51.47;;;27.30;;
21987;SDS011;11158;53.404;-1.510;2022-12-18T07:57:42;53.35;;;27.00;;
21987;SDS011;11158;53.404;-1.510;2022-12-18T08:00:09;53.80;;;27.88;;
21987;SDS011;11158;53.404;-1.510;2022-12-18T08:02:35;49.17;;;25.95;;
21987;SDS011;11158;53.404;-1.510;2022-12-18T08:05:00;48.88;;;25.77;;
21987;SDS011;11158;53.404;-1.510;2022-12-18T08:07:26;51.95;;;27.63;;
21987;SDS011;11158;53.404;-1.510;2022-12-18T08:09:52;48.97;;;26.15;;
21987;SDS011;11158;53.404;-1.510;2022-12-18T08:12:18;51.17;;;27.35;;
21987;SDS011;11158;53.404;-1.510;2022-12-18T08:14:43;50.25;;;26.48;;
21987;SDS011;11158;53.404;-1.510;2022-12-18T08:17:09;52.63;;;27.48;;
21987;SDS011;11158;53.404;-1.510;2022-12-18T08:19:35;48.90;;;26.40;;
21987;SDS011;11158;53.404;-1.510;2022-12-18T08:22:00;53.22;;;26.80;;
21987;SDS011;11158;53.404;-1.510;2022-12-18T08:24:26;49.15;;;25.02;;
21987;SDS011;11158;53.404;-1.510;2022-12-18T08:26:52;43.67;;;25.30;;
21987;SDS011;11158;53.404;-1.510;2022-12-18T08:29:18;46.95;;;24.38;;
21987;SDS011;11158;53.404;-1.510;2022-12-18T08:31:45;45.60;;;25.23;;
21987;SDS011;11158;53.404;-1.510;2022-12-18T08:34:11;48.33;;;24.48;;
21987;SDS011;11158;53.404;-1.510;2022-12-18T08:36:37;45.72;;;24.92;;
21987;SDS011;11158;53.404;-1.510;2022-12-18T08:39:03;47.13;;;24.02;;
21987;SDS011;11158;53.404;-1.510;2022-12-18T08:41:29;46.78;;;23.58;;
21987;SDS011;11158;53.404;-1.510;2022-12-18T08:43:54;50.92;;;24.23;;
21987;SDS011;11158;53.404;-1.510;2022-12-18T08:46:39;44.78;;;24.63;;
21987;SDS011;11158;53.404;-1.510;2022-12-18T08:49:07;48.08;;;24.30;;
21987;SDS011;11158;53.404;-1.510;2022-12-18T08:51:33;51.30;;;25.95;;
21987;SDS011;11158;53.404;-1.510;2022-12-18T08:53:59;47.88;;;22.77;;
21987;SDS011;11158;53.404;-1.510;2022-12-18T08:56:25;47.83;;;24.08;;
21987;SDS011;11158;53.404;-1.510;2022-12-18T08:58:52;41.38;;;21.85;;
21987;SDS011;11158;53.404;-1.510;2022-12-18T09:01:19;42.42;;;22.40;;
21987;SDS011;11158;53.404;-1.510;2022-12-18T09:03:45;41.30;;;23.17;;
21987;SDS011;11158;53.404;-1.510;2022-12-18T09:06:13;42.58;;;22.38;;
21987;SDS011;11158;53.404;-1.510;2022-12-18T09:08:41;43.00;;;23.23;;
21987;SDS011;11158;53.404;-1.510;2022-12-18T09:11:15;41.35;;;21.50;;
21987;SDS011;11158;53.404;-1.510;2022-12-18T09:13:46;41.67;;;20.98;;
21987;SDS011;11158;53.404;-1.510;2022-12-18T09:16:12;39.55;;;21.58;;
21987;SDS011;11158;53.404;-1.510;2022-12-18T09:18:38;44.60;;;23.33;;
21987;SDS011;11158;53.404;-1.510;2022-12-18T09:21:08;43.30;;;22.90;;
21987;SDS011;11158;53.404;-1.510;2022-12-18T09:23:48;39.78;;;21.30;;
21987;SDS011;11158;53.404;-1.510;2022-12-18T09:26:18;41.65;;;22.90;;
21987;SDS011;11158;53.404;-1.510;2022-12-18T09:28:44;44.38;;;21.48;;
21987;SDS011;11158;53.404;-1.510;2022-12-18T09:31:10;44.97;;;21.02;;
21987;SDS011;11158;53.404;-1.510;2022-12-18T09:33:37;43.85;;;22.02;;
21987;SDS011;11158;53.404;-1.510;2022-12-18T09:36:03;40.80;;;20.17;;
21987;SDS011;11158;53.404;-1.510;2022-12-18T09:38:32;41.92;;;21.35;;
21987;SDS011;11158;53.404;-1.510;2022-12-18T09:43:54;40.95;;;20.83;;
21987;SDS011;11158;53.404;-1.510;2022-12-18T09:46:27;43.08;;;20.38;;
21987;SDS011;11158;53.404;-1.510;2022-12-18T09:48:59;39.72;;;21.13;;
21987;SDS011;11158;53.404;-1.510;2022-12-18T09:51:33;38.72;;;20.48;;
21987;SDS011;11158;53.404;-1.510;2022-12-18T09:54:22;42.30;;;21.80;;
21987;SDS011;11158;53.404;-1.510;2022-12-18T09:56:56;42.38;;;20.55;;
21987;SDS011;11158;53.404;-1.510;2022-12-18T09:59:26;37.03;;;19.40;;
21987;SDS011;11158;53.404;-1.510;2022-12-18T10:02:11;37.47;;;19.50;;
21987;SDS011;11158;53.404;-1.510;2022-12-18T10:05:05;38.35;;;20.05;;
21987;SDS011;11158;53.404;-1.510;2022-12-18T10:07:47;40.55;;;20.33;;
21987;SDS011;11158;53.404;-1.510;2022-12-18T10:21:07;37.92;;;17.52;;
21987;SDS011;11158;53.404;-1.510;2022-12-18T10:26:22;32.28;;;18.05;;
21987;SDS011;11158;53.404;-1.510;2022-12-18T10:28:49;35.80;;;18.92;;
21987;SDS011;11158;53.404;-1.510;2022-12-18T10:31:18;33.85;;;18.60;;
21987;SDS011;11158;53.404;-1.510;2022-12-18T10:33:49;32.45;;;18.13;;
21987;SDS011;11158;53.404;-1.510;2022-12-18T10:36:14;32.80;;;18.25;;
21987;SDS011;11158;53.404;-1.510;2022-12-18T10:38:40;35.83;;;18.40;;
21987;SDS011;11158;53.404;-1.510;2022-12-18T10:41:08;33.08;;;17.48;;
21987;SDS011;11158;53.404;-1.510;2022-12-18T10:46:40;32.20;;;17.33;;
21987;SDS011;11158;53.404;-1.510;2022-12-18T10:49:07;30.13;;;17.58;;
21987;SDS011;11158;53.404;-1.510;2022-12-18T10:51:44;30.67;;;16.40;;
21987;SDS011;11158;53.404;-1.510;2022-12-18T10:54:15;30.45;;;16.67;;
21987;SDS011;11158;53.404;-1.510;2022-12-18T10:56:43;31.15;;;15.93;;
21987;SDS011;11158;53.404;-1.510;2022-12-18T10:59:10;27.63;;;16.20;;
21987;SDS011;11158;53.404;-1.510;2022-12-18T11:04:29;33.15;;;16.52;;
21987;SDS011;11158;53.404;-1.510;2022-12-18T11:06:58;29.08;;;15.95;;
21987;SDS011;11158;53.404;-1.510;2022-12-18T11:09:26;29.65;;;16.02;;
21987;SDS011;11158;53.404;-1.510;2022-12-18T11:11:56;29.15;;;16.05;;
21987;SDS011;11158;53.404;-1.510;2022-12-18T11:17:27;28.70;;;16.27;;
21987;SDS011;11158;53.404;-1.510;2022-12-18T11:19:59;27.45;;;16.25;;
21987;SDS011;11158;53.404;-1.510;2022-12-18T11:22:29;31.42;;;16.40;;
21987;SDS011;11158;53.404;-1.510;2022-12-18T11:27:40;27.38;;;15.38;;
21987;SDS011;11158;53.404;-1.510;2022-12-18T11:32:48;35.33;;;17.90;;
21987;SDS011;11158;53.404;-1.510;2022-12-18T11:38:00;26.77;;;15.10;;
21987;SDS011;11158;53.404;-1.510;2022-12-18T11:40:33;26.20;;;15.45;;
21987;SDS011;11158;53.404;-1.510;2022-12-18T11:45:50;30.00;;;17.15;;
21987;SDS011;11158;53.404;-1.510;2022-12-18T11:48:25;29.77;;;16.55;;
21987;SDS011;11158;53.404;-1.510;2022-12-18T11:50:56;30.95;;;17.00;;
21987;SDS011;11158;53.404;-1.510;2022-12-18T11:53:25;30.13;;;16.17;;
21987;SDS011;11158;53.404;-1.510;2022-12-18T12:12:49;28.08;;;15.35;;
21987;SDS011;11158;53.404;-1.510;2022-12-18T12:35:21;25.77;;;15.20;;
21987;SDS011;11158;53.404;-1.510;2022-12-18T12:40:38;27.63;;;16.85;;
21987;SDS011;11158;53.404;-1.510;2022-12-18T12:53:59;30.25;;;17.25;;
21987;SDS011;11158;53.404;-1.510;2022-12-18T12:56:49;34.10;;;19.15;;
21987;SDS011;11158;53.404;-1.510;2022-12-18T12:59:30;28.35;;;16.95;;
21987;SDS011;11158;53.404;-1.510;2022-12-18T13:04:58;32.03;;;18.02;;
21987;SDS011;11158;53.404;-1.510;2022-12-18T13:07:37;34.50;;;17.48;;
21987;SDS011;11158;53.404;-1.510;2022-12-18T13:13:07;31.63;;;16.95;;
21987;SDS011;11158;53.404;-1.510;2022-12-18T13:18:10;28.50;;;17.38;;
21987;SDS011;11158;53.404;-1.510;2022-12-18T13:25:49;32.38;;;18.08;;
21987;SDS011;11158;53.404;-1.510;2022-12-18T13:30:58;31.90;;;17.58;;
21987;SDS011;11158;53.404;-1.510;2022-12-18T13:35:55;32.67;;;18.05;;
21987;SDS011;11158;53.404;-1.510;2022-12-18T13:41:37;31.77;;;17.90;;
21987;SDS011;11158;53.404;-1.510;2022-12-18T13:44:11;39.28;;;18.40;;
21987;SDS011;11158;53.404;-1.510;2022-12-18T13:46:44;33.35;;;17.60;;
21987;SDS011;11158;53.404;-1.510;2022-12-18T13:51:44;32.40;;;17.15;;
21987;SDS011;11158;53.404;-1.510;2022-12-18T13:54:59;30.98;;;18.33;;
21987;SDS011;11158;53.404;-1.510;2022-12-18T13:57:05;26.05;;;16.17;;
21987;SDS011;11158;53.404;-1.510;2022-12-18T13:59:49;32.20;;;17.92;;
21987;SDS011;11158;53.404;-1.510;2022-12-18T14:02:15;33.35;;;17.55;;
21987;SDS011;11158;53.404;-1.510;2022-12-18T14:04:46;31.90;;;17.92;;
21987;SDS011;11158;53.404;-1.510;2022-12-18T14:07:13;35.63;;;18.77;;
21987;SDS011;11158;53.404;-1.510;2022-12-18T14:09:43;34.13;;;19.08;;
21987;SDS011;11158;53.404;-1.510;2022-12-18T14:12:15;33.85;;;18.83;;
21987;SDS011;11158;53.404;-1.510;2022-12-18T14:15:06;32.90;;;17.95;;
21987;SDS011;11158;53.404;-1.510;2022-12-18T14:17:45;34.13;;;19.52;;
21987;SDS011;11158;53.404;-1.510;2022-12-18T14:20:15;33.13;;;17.58;;
21987;SDS011;11158;53.404;-1.510;2022-12-18T14:22:46;37.70;;;18.10;;
21987;SDS011;11158;53.404;-1.510;2022-12-18T14:27:43;30.02;;;17.52;;
21987;SDS011;11158;53.404;-1.510;2022-12-18T14:30:44;34.63;;;17.58;;
21987;SDS011;11158;53.404;-1.510;2022-12-18T14:38:25;32.47;;;18.88;;
21987;SDS011;11158;53.404;-1.510;2022-12-18T14:41:01;37.08;;;19.67;;
21987;SDS011;11158;53.404;-1.510;2022-12-18T14:43:41;36.97;;;18.52;;
21987;SDS011;11158;53.404;-1.510;2022-12-18T14:51:55;34.40;;;17.92;;
21987;SDS011;11158;53.404;-1.510;2022-12-18T14:54:23;36.47;;;18.38;;
21987;SDS011;11158;53.404;-1.510;2022-12-18T14:57:00;32.85;;;17.40;;
21987;SDS011;11158;53.404;-1.510;2022-12-18T14:59:28;36.35;;;18.80;;
21987;SDS011;11158;53.404;-1.510;2022-12-18T15:04:28;32.42;;;17.63;;
21987;SDS011;11158;53.404;-1.510;2022-12-18T15:14:59;38.50;;;21.02;;
21987;SDS011;11158;53.404;-1.510;2022-12-18T15:17:24;42.95;;;21.50;;
21987;SDS011;11158;53.404;-1.510;2022-12-18T15:19:58;29.92;;;18.20;;
21987;SDS011;11158;53.404;-1.510;2022-12-18T15:22:30;43.15;;;24.42;;
21987;SDS011;11158;53.404;-1.510;2022-12-18T15:25:00;43.17;;;23.30;;
21987;SDS011;11158;53.404;-1.510;2022-12-18T15:32:33;43.72;;;23.27;;
21987;SDS011;11158;53.404;-1.510;2022-12-18T15:37:36;36.55;;;21.02;;
21987;SDS011;11158;53.404;-1.510;2022-12-18T15:40:13;32.00;;;18.77;;
21987;SDS011;11158;53.404;-1.510;2022-12-18T15:42:43;28.88;;;17.25;;
21987;SDS011;11158;53.404;-1.510;2022-12-18T15:45:27;33.65;;;19.08;;
21987;SDS011;11158;53.404;-1.510;2022-12-18T15:47:55;36.25;;;18.77;;
21987;SDS011;11158;53.404;-1.510;2022-12-18T15:50:36;32.88;;;18.45;;
21987;SDS011;11158;53.404;-1.510;2022-12-18T15:53:01;34.33;;;18.75;;
21987;SDS011;11158;53.404;-1.510;2022-12-18T15:55:27;31.65;;;19.27;;
21987;SDS011;11158;53.404;-1.510;2022-12-18T15:58:11;34.80;;;19.63;;
21987;SDS011;11158;53.404;-1.510;2022-12-18T16:00:38;30.65;;;18.85;;
21987;SDS011;11158;53.404;-1.510;2022-12-18T16:03:05;29.80;;;18.85;;
21987;SDS011;11158;53.404;-1.510;2022-12-18T16:05:32;29.45;;;18.48;;
21987;SDS011;11158;53.404;-1.510;2022-12-18T16:07:58;32.15;;;18.70;;
21987;SDS011;11158;53.404;-1.510;2022-12-18T16:10:24;30.25;;;17.95;;
21987;SDS011;11158;53.404;-1.510;2022-12-18T16:12:51;30.35;;;17.90;;
21987;SDS011;11158;53.404;-1.510;2022-12-18T16:15:17;29.52;;;18.60;;
21987;SDS011;11158;53.404;-1.510;2022-12-18T16:17:45;29.42;;;18.10;;
21987;SDS011;11158;53.404;-1.510;2022-12-18T16:20:13;28.48;;;18.40;;
21987;SDS011;11158;53.404;-1.510;2022-12-18T16:22:41;33.80;;;18.85;;
21987;SDS011;11158;53.404;-1.510;2022-12-18T16:25:26;31.88;;;18.33;;
21987;SDS011;11158;53.404;-1.510;2022-12-18T16:27:53;32.17;;;18.13;;
21987;SDS011;11158;53.404;-1.510;2022-12-18T16:30:26;28.17;;;17.42;;
21987;SDS011;11158;53.404;-1.510;2022-12-18T16:32:54;26.02;;;17.13;;
21987;SDS011;11158;53.404;-1.510;2022-12-18T16:35:20;28.25;;;18.08;;
21987;SDS011;11158;53.404;-1.510;2022-12-18T16:37:46;34.20;;;18.95;;
21987;SDS011;11158;53.404;-1.510;2022-12-18T16:40:13;29.45;;;18.45;;
21987;SDS011;11158;53.404;-1.510;2022-12-18T16:42:40;31.85;;;19.45;;
21987;SDS011;11158;53.404;-1.510;2022-12-18T16:45:09;35.92;;;19.92;;
21987;SDS011;11158;53.404;-1.510;2022-12-18T16:47:37;30.90;;;19.17;;
21987;SDS011;11158;53.404;-1.510;2022-12-18T16:50:03;32.95;;;20.67;;
21987;SDS011;11158;53.404;-1.510;2022-12-18T16:52:29;27.45;;;18.92;;
21987;SDS011;11158;53.404;-1.510;2022-12-18T16:54:55;31.38;;;21.08;;
21987;SDS011;11158;53.404;-1.510;2022-12-18T16:57:21;32.15;;;21.10;;
21987;SDS011;11158;53.404;-1.510;2022-12-18T16:59:47;28.40;;;17.48;;
21987;SDS011;11158;53.404;-1.510;2022-12-18T17:02:15;32.17;;;19.25;;
21987;SDS011;11158;53.404;-1.510;2022-12-18T17:04:43;26.90;;;17.23;;
21987;SDS011;11158;53.404;-1.510;2022-12-18T17:07:09;31.35;;;19.27;;
21987;SDS011;11158;53.404;-1.510;2022-12-18T17:09:35;31.13;;;19.95;;
21987;SDS011;11158;53.404;-1.510;2022-12-18T17:12:01;29.67;;;20.67;;
21987;SDS011;11158;53.404;-1.510;2022-12-18T17:14:27;29.35;;;19.42;;
21987;SDS011;11158;53.404;-1.510;2022-12-18T17:16:53;36.65;;;20.80;;
21987;SDS011;11158;53.404;-1.510;2022-12-18T17:19:19;31.23;;;20.65;;
21987;SDS011;11158;53.404;-1.510;2022-12-18T17:21:46;35.13;;;20.80;;